createdAt,value
2017-06-06T02:38:59.633Z,0
2017-06-06T02:39:40.168Z,0
2017-06-06T02:40:20.717Z,0
2017-06-06T02:41:01.257Z,0
2017-06-06T02:41:41.789Z,0
2017-06-06T02:42:22.321Z,0
2017-06-06T02:43:02.859Z,0
2017-06-06T02:43:43.407Z,0
2017-06-06T02:44:23.944Z,0
2017-06-06T02:45:04.483Z,0
2017-06-06T02:45:45.022Z,0
2017-06-06T02:46:25.555Z,0
2017-06-06T02:47:06.093Z,0
2017-06-06T02:47:46.633Z,0
2017-06-06T02:48:27.171Z,0
2017-06-06T02:49:07.714Z,0
2017-06-06T02:49:48.249Z,0
2017-06-06T02:50:28.793Z,0
2017-06-06T02:51:09.333Z,0
2017-06-06T02:51:49.883Z,0
2017-06-06T02:52:30.422Z,0
2017-06-06T02:53:10.963Z,0
2017-06-06T02:53:51.506Z,0
2017-06-06T02:54:32.039Z,0
2017-06-06T02:55:12.580Z,0
2017-06-06T02:55:53.124Z,0
2017-06-06T02:56:33.659Z,0
2017-06-06T02:57:14.208Z,0
2017-06-06T02:57:54.719Z,0
2017-06-06T02:58:35.285Z,0
2017-06-06T02:59:15.807Z,0
2017-06-06T02:59:56.341Z,0
2017-06-06T03:00:36.893Z,0
2017-06-06T03:01:17.436Z,0
2017-06-06T03:01:57.976Z,0
2017-06-06T03:02:38.514Z,0
2017-06-06T03:03:19.052Z,0
2017-06-06T03:03:59.593Z,0
2017-06-06T03:04:40.131Z,0
2017-06-06T03:05:20.672Z,0
2017-06-06T03:06:01.210Z,0
2017-06-06T03:06:41.753Z,0
2017-06-06T03:07:22.294Z,0
2017-06-06T03:08:02.841Z,0
2017-06-06T03:08:43.381Z,0
2017-06-06T03:09:23.920Z,0
2017-06-06T03:10:04.461Z,0
2017-06-06T03:10:45.002Z,0
2017-06-06T03:11:25.539Z,0
2017-06-06T03:12:06.079Z,0
2017-06-06T03:12:46.622Z,0
2017-06-06T03:13:27.155Z,0
2017-06-06T03:14:07.706Z,0
2017-06-06T03:14:48.250Z,0
2017-06-06T03:15:28.789Z,5
2017-06-06T03:16:09.325Z,5
2017-06-06T03:16:49.868Z,5
2017-06-06T03:17:30.406Z,5
2017-06-06T03:18:10.949Z,5
2017-06-06T03:18:51.496Z,5
2017-06-06T03:19:32.030Z,5
2017-06-06T03:20:12.568Z,5
2017-06-06T03:20:53.095Z,5
2017-06-06T03:21:33.649Z,5
2017-06-06T03:22:14.249Z,5
2017-06-06T03:22:54.789Z,0
2017-06-06T03:23:35.322Z,0
2017-06-06T03:24:15.881Z,0
2017-06-06T03:24:56.526Z,5
2017-06-06T03:25:37.068Z,5
2017-06-06T03:26:17.609Z,5
2017-06-06T03:26:58.152Z,5
2017-06-06T03:27:38.696Z,5
2017-06-06T03:28:19.299Z,5
2017-06-06T03:28:59.841Z,5
2017-06-06T03:29:40.392Z,5
2017-06-06T03:30:20.942Z,5
2017-06-06T03:31:01.492Z,5
2017-06-06T03:31:42.033Z,5
2017-06-06T03:32:22.583Z,5
2017-06-06T03:33:03.131Z,5
2017-06-06T03:33:43.674Z,5
2017-06-06T03:34:24.222Z,5
2017-06-06T03:35:04.766Z,5
2017-06-06T03:35:45.315Z,5
2017-06-06T03:36:25.857Z,5
2017-06-06T03:37:06.461Z,10
2017-06-06T03:37:46.996Z,10
2017-06-06T03:38:27.539Z,10
2017-06-06T03:39:08.074Z,10
2017-06-06T03:39:48.603Z,10
2017-06-06T03:40:29.140Z,10
2017-06-06T03:41:09.684Z,10
2017-06-06T03:41:50.225Z,15
2017-06-06T03:42:30.767Z,15
2017-06-06T03:43:11.309Z,15
2017-06-06T03:43:51.849Z,15
2017-06-06T03:44:32.393Z,15
2017-06-06T03:45:12.938Z,15
2017-06-06T03:45:53.490Z,15
2017-06-06T03:46:34.003Z,20
2017-06-06T03:47:14.581Z,20
2017-06-06T03:47:55.103Z,20
2017-06-06T03:48:35.641Z,20
2017-06-06T03:49:16.178Z,20
2017-06-06T03:49:56.717Z,20
2017-06-06T03:50:37.267Z,20
2017-06-06T03:51:17.891Z,20
2017-06-06T03:51:58.456Z,20
2017-06-06T03:52:39.004Z,25
2017-06-06T03:53:19.539Z,25
2017-06-06T03:54:00.090Z,25
2017-06-06T03:54:40.616Z,25
2017-06-06T03:55:21.146Z,25
2017-06-06T03:56:01.694Z,30
2017-06-06T03:56:42.226Z,30
2017-06-06T03:57:22.759Z,30
2017-06-06T03:58:03.331Z,30
2017-06-06T03:58:43.881Z,30
2017-06-06T03:59:24.429Z,30
2017-06-06T04:00:04.968Z,30
2017-06-06T04:00:45.514Z,30
2017-06-06T04:01:26.058Z,30
2017-06-06T04:02:06.643Z,30
2017-06-06T04:02:47.185Z,30
2017-06-06T04:03:27.733Z,30
2017-06-06T04:04:08.275Z,30
2017-06-06T04:04:48.819Z,30
2017-06-06T04:05:29.360Z,30
2017-06-06T04:06:09.910Z,30
2017-06-06T04:06:50.429Z,30
2017-06-06T04:07:30.956Z,30
2017-06-06T04:08:11.499Z,30
2017-06-06T04:08:52.036Z,30
2017-06-06T04:09:32.574Z,30
2017-06-06T04:10:13.138Z,30
2017-06-06T04:10:53.676Z,30
2017-06-06T04:11:34.241Z,30
2017-06-06T04:12:14.778Z,30
2017-06-06T04:12:55.344Z,30
2017-06-06T04:13:35.894Z,35
2017-06-06T04:14:16.433Z,35
2017-06-06T04:14:56.982Z,35
2017-06-06T04:15:37.532Z,35
2017-06-06T04:16:18.073Z,35
2017-06-06T04:16:58.627Z,35
2017-06-06T04:17:39.168Z,35
2017-06-06T04:18:19.712Z,35
2017-06-06T04:19:00.253Z,35
2017-06-06T04:19:40.801Z,40
2017-06-06T04:20:21.342Z,40
2017-06-06T04:21:01.971Z,40
2017-06-06T04:21:42.460Z,40
2017-06-06T04:22:22.990Z,40
2017-06-06T04:23:03.524Z,40
2017-06-06T04:23:44.061Z,40
2017-06-06T04:24:24.597Z,40
2017-06-06T04:25:05.144Z,40
2017-06-06T04:25:45.674Z,40
2017-06-06T04:26:26.224Z,40
2017-06-06T04:27:06.751Z,45
2017-06-06T04:27:47.292Z,45
2017-06-06T04:28:27.830Z,45
2017-06-06T04:29:08.370Z,45
2017-06-06T04:29:48.900Z,50
2017-06-06T04:30:29.451Z,50
2017-06-06T04:31:09.993Z,50
2017-06-06T04:31:50.544Z,55
2017-06-06T04:32:31.090Z,55
2017-06-06T04:33:11.651Z,55
2017-06-06T04:33:52.183Z,55
2017-06-06T04:34:32.729Z,55
2017-06-06T04:35:13.279Z,55
2017-06-06T04:35:53.823Z,55
2017-06-06T04:36:34.362Z,60
2017-06-06T04:37:14.903Z,60
2017-06-06T04:37:55.442Z,60
2017-06-06T04:38:35.983Z,60
2017-06-06T04:39:16.524Z,65
2017-06-06T04:39:57.063Z,65
2017-06-06T04:40:37.607Z,70
2017-06-06T04:41:18.150Z,70
2017-06-06T04:41:58.701Z,70
2017-06-06T04:42:39.236Z,75
2017-06-06T04:43:19.767Z,75
2017-06-06T04:44:00.311Z,75
2017-06-06T04:44:40.852Z,70
2017-06-06T04:45:21.389Z,70
2017-06-06T04:46:01.931Z,65
2017-06-06T04:46:42.479Z,65
2017-06-06T04:47:23.029Z,65
2017-06-06T04:48:03.577Z,60
2017-06-06T04:48:44.115Z,60
2017-06-06T04:49:24.653Z,60
2017-06-06T04:50:05.195Z,60
2017-06-06T04:50:45.728Z,60
2017-06-06T04:51:26.263Z,60
2017-06-06T04:52:06.816Z,55
2017-06-06T04:52:47.346Z,55
2017-06-06T04:53:27.887Z,55
2017-06-06T04:54:08.422Z,50
2017-06-06T04:54:48.974Z,50
2017-06-06T04:55:29.513Z,50
2017-06-06T04:56:10.027Z,45
2017-06-06T04:56:50.565Z,45
2017-06-06T04:57:31.107Z,45
2017-06-06T04:58:11.650Z,40
2017-06-06T04:58:52.189Z,40
2017-06-06T04:59:32.725Z,40
2017-06-06T05:00:13.276Z,45
2017-06-06T05:00:53.790Z,45
2017-06-06T05:01:34.320Z,50
2017-06-06T05:02:14.857Z,55
2017-06-06T05:02:55.396Z,60
2017-06-06T05:03:35.940Z,65
2017-06-06T05:04:16.494Z,65
2017-06-06T05:04:57.040Z,65
2017-06-06T05:05:37.585Z,70
2017-06-06T05:06:18.133Z,75
2017-06-06T05:06:58.676Z,80
2017-06-06T05:07:39.213Z,85
2017-06-06T05:08:19.766Z,90
2017-06-06T05:09:00.297Z,95
2017-06-06T05:09:40.830Z,100
2017-06-06T05:10:21.371Z,100
2017-06-06T05:11:01.908Z,100
2017-06-06T05:11:42.442Z,100
2017-06-06T05:12:23.007Z,95
2017-06-06T05:13:03.558Z,95
2017-06-06T05:13:44.102Z,95
2017-06-06T05:14:24.651Z,95
2017-06-06T05:15:05.279Z,90
2017-06-06T05:15:45.822Z,90
2017-06-06T05:16:26.537Z,85
2017-06-06T05:17:07.072Z,85
2017-06-06T05:17:47.617Z,85
2017-06-06T05:18:28.483Z,80
2017-06-06T05:19:09.020Z,80
2017-06-06T05:19:49.559Z,80
2017-06-06T05:20:30.110Z,80
2017-06-06T05:21:10.663Z,85
2017-06-06T05:21:51.195Z,85
2017-06-06T05:22:31.741Z,85
2017-06-06T05:23:12.268Z,90
2017-06-06T05:23:52.812Z,90
2017-06-06T05:24:33.350Z,90
2017-06-06T05:25:13.891Z,95
2017-06-06T05:25:54.435Z,95
2017-06-06T05:26:34.981Z,95
2017-06-06T05:27:15.523Z,100
2017-06-06T05:27:56.059Z,100
2017-06-06T05:28:36.599Z,105
2017-06-06T05:29:17.139Z,110
2017-06-06T05:29:57.686Z,115
2017-06-06T05:30:38.224Z,120
2017-06-06T05:31:18.770Z,120
2017-06-06T05:31:59.313Z,125
2017-06-06T05:32:39.852Z,130
2017-06-06T05:33:20.393Z,135
2017-06-06T05:34:00.938Z,145
2017-06-06T05:34:41.476Z,155
2017-06-06T05:35:22.024Z,165
2017-06-06T05:36:02.569Z,175
2017-06-06T05:36:43.113Z,185
2017-06-06T05:37:23.657Z,190
2017-06-06T05:38:04.196Z,195
2017-06-06T05:38:44.739Z,190
2017-06-06T05:39:25.278Z,185
2017-06-06T05:40:05.815Z,180
2017-06-06T05:40:46.367Z,170
2017-06-06T05:41:26.897Z,160
2017-06-06T05:42:07.432Z,150
2017-06-06T05:42:47.973Z,135
2017-06-06T05:43:28.553Z,125
2017-06-06T05:44:09.089Z,120
2017-06-06T05:44:49.648Z,110
2017-06-06T05:45:30.188Z,110
2017-06-06T05:46:10.735Z,105
2017-06-06T05:46:51.282Z,105
2017-06-06T05:47:31.834Z,100
2017-06-06T05:48:12.551Z,95
2017-06-06T05:48:53.342Z,85
2017-06-06T05:49:33.899Z,75
2017-06-06T05:50:14.447Z,70
2017-06-06T05:50:54.992Z,60
2017-06-06T05:51:35.534Z,55
2017-06-06T05:52:16.081Z,50
2017-06-06T05:52:56.611Z,45
2017-06-06T05:53:37.146Z,45
2017-06-06T05:54:17.689Z,40
2017-06-06T05:54:58.232Z,35
2017-06-06T05:55:38.776Z,35
2017-06-06T05:56:19.326Z,35
2017-06-06T05:56:59.870Z,35
2017-06-06T05:57:40.410Z,35
2017-06-06T05:58:20.945Z,40
2017-06-06T05:59:01.502Z,50
2017-06-06T05:59:42.044Z,60
2017-06-06T06:00:22.584Z,70
2017-06-06T06:01:03.122Z,75
2017-06-06T06:01:43.659Z,75
2017-06-06T06:02:24.199Z,75
2017-06-06T06:03:04.768Z,80
2017-06-06T06:03:45.302Z,80
2017-06-06T06:04:25.852Z,85
2017-06-06T06:05:06.393Z,90
2017-06-06T06:05:46.937Z,95
2017-06-06T06:06:27.472Z,100
2017-06-06T06:07:08.014Z,100
2017-06-06T06:07:48.557Z,95
2017-06-06T06:08:29.099Z,95
2017-06-06T06:09:09.620Z,90
2017-06-06T06:09:50.160Z,85
2017-06-06T06:10:30.698Z,85
2017-06-06T06:11:11.234Z,90
2017-06-06T06:11:51.783Z,90
2017-06-06T06:12:32.335Z,90
2017-06-06T06:13:12.880Z,90
2017-06-06T06:13:53.428Z,90
2017-06-06T06:14:33.975Z,90
2017-06-06T06:15:14.521Z,90
2017-06-06T06:15:55.071Z,95
2017-06-06T06:16:35.612Z,100
2017-06-06T06:17:16.138Z,105
2017-06-06T06:17:56.673Z,105
2017-06-06T06:18:37.223Z,105
2017-06-06T06:19:17.772Z,110
2017-06-06T06:19:58.319Z,110
2017-06-06T06:20:38.859Z,105
2017-06-06T06:21:19.401Z,105
2017-06-06T06:21:59.940Z,100
2017-06-06T06:22:40.486Z,95
2017-06-06T06:23:21.049Z,90
2017-06-06T06:24:01.584Z,90
2017-06-06T06:24:42.135Z,85
2017-06-06T06:25:22.683Z,80
2017-06-06T06:26:03.228Z,80
2017-06-06T06:26:43.773Z,80
2017-06-06T06:27:24.318Z,75
2017-06-06T06:28:04.853Z,75
2017-06-06T06:28:45.401Z,75
2017-06-06T06:29:25.928Z,80
2017-06-06T06:30:06.466Z,80
2017-06-06T06:30:47.010Z,80
2017-06-06T06:31:27.556Z,80
2017-06-06T06:32:09.149Z,80
2017-06-06T06:32:52.610Z,80
2017-06-06T06:33:33.178Z,85
2017-06-06T06:34:13.722Z,90
2017-06-06T06:34:54.243Z,90
2017-06-06T06:35:34.772Z,95
2017-06-06T06:36:15.313Z,100
2017-06-06T06:36:55.878Z,105
2017-06-06T06:37:36.422Z,105
2017-06-06T06:38:16.965Z,100
2017-06-06T06:38:57.529Z,100
2017-06-06T06:39:40.808Z,100
2017-06-06T06:40:22.940Z,100
2017-06-06T06:41:13.578Z,110
2017-06-06T06:42:02.617Z,110
2017-06-06T06:42:44.915Z,110
2017-06-06T06:43:27.632Z,110
2017-06-06T06:44:10.382Z,110
2017-06-06T06:44:52.518Z,110
2017-06-06T06:45:34.098Z,115
2017-06-06T06:46:25.322Z,115
2017-06-06T06:47:06.809Z,115
2017-06-06T06:47:49.856Z,120
2017-06-06T06:48:33.196Z,120
2017-06-06T06:49:15.301Z,125
2017-06-06T06:49:57.520Z,125
2017-06-06T06:50:39.855Z,125
2017-06-06T06:51:22.243Z,125
2017-06-06T06:52:04.188Z,130
2017-06-06T06:52:46.546Z,135
2017-06-06T06:53:28.643Z,140
2017-06-06T06:54:10.584Z,140
2017-06-06T06:54:52.183Z,145
2017-06-06T06:55:34.102Z,145
2017-06-06T06:56:16.196Z,145
2017-06-06T06:56:58.169Z,140
2017-06-06T06:57:40.122Z,130
2017-06-06T06:58:22.458Z,130
2017-06-06T06:59:05.247Z,130
2017-06-06T06:59:46.982Z,135
2017-06-06T07:00:29.521Z,130
2017-06-06T07:01:11.821Z,130
2017-06-06T07:01:54.120Z,135
2017-06-06T07:02:36.096Z,135
2017-06-06T07:03:18.480Z,135
2017-06-06T07:04:00.246Z,135
2017-06-06T07:04:42.639Z,140
2017-06-06T07:05:24.771Z,135
2017-06-06T07:06:12.076Z,135
2017-06-06T07:06:55.634Z,140
2017-06-06T07:07:41.939Z,135
2017-06-06T07:08:31.038Z,100
2017-06-06T07:09:13.390Z,80
2017-06-06T07:09:55.862Z,105
2017-06-06T07:10:37.904Z,110
2017-06-06T07:11:20.379Z,130
2017-06-06T07:12:03.163Z,150
2017-06-06T07:12:45.058Z,170
2017-06-06T07:13:27.310Z,175
2017-06-06T07:14:10.184Z,175
2017-06-06T07:14:52.347Z,170
2017-06-06T07:15:35.343Z,190
2017-06-06T07:17:51.311Z,210
2017-06-06T07:18:33.299Z,195
2017-06-06T07:19:15.051Z,175
2017-06-06T07:19:57.337Z,175
2017-06-06T07:20:39.749Z,170
2017-06-06T07:21:22.652Z,160
2017-06-06T07:22:04.957Z,155
2017-06-06T07:22:47.777Z,160
2017-06-06T07:23:29.766Z,165
2017-06-06T07:24:12.584Z,170
2017-06-06T07:24:55.138Z,175
2017-06-06T07:25:35.712Z,180
2017-06-06T07:26:16.263Z,185
2017-06-06T07:26:56.796Z,195
2017-06-06T07:27:37.344Z,205
2017-06-06T07:28:17.937Z,220
2017-06-06T07:28:58.399Z,230
2017-06-06T07:29:38.938Z,235
2017-06-06T07:30:19.477Z,245
2017-06-06T07:31:00.024Z,250
2017-06-06T07:31:40.574Z,260
2017-06-06T07:32:21.115Z,270
2017-06-06T07:33:01.659Z,275
2017-06-06T07:33:42.208Z,275
2017-06-06T07:34:22.727Z,275
2017-06-06T07:35:03.268Z,275
2017-06-06T07:35:43.808Z,280
2017-06-06T07:36:24.349Z,290
2017-06-06T07:37:04.886Z,305
2017-06-06T07:37:45.424Z,325
2017-06-06T07:38:25.955Z,330
2017-06-06T07:39:06.492Z,335
2017-06-06T07:39:47.034Z,350
2017-06-06T07:40:27.576Z,365
2017-06-06T07:41:08.119Z,385
2017-06-06T07:41:48.656Z,395
2017-06-06T07:42:29.192Z,415
2017-06-06T07:43:09.734Z,455
2017-06-06T07:43:50.277Z,435
2017-06-06T07:44:30.825Z,455
2017-06-06T07:45:11.372Z,500
2017-06-06T07:45:51.916Z,435
2017-06-06T07:46:32.452Z,360
2017-06-06T07:47:12.983Z,310
2017-06-06T07:47:53.520Z,285
2017-06-06T07:48:34.053Z,265
2017-06-06T07:49:14.611Z,260
2017-06-06T07:49:55.152Z,260
2017-06-06T07:50:35.704Z,260
2017-06-06T07:51:16.255Z,265
2017-06-06T07:51:56.800Z,255
2017-06-06T07:52:37.340Z,250
2017-06-06T07:53:17.986Z,255
2017-06-06T07:53:58.405Z,265
2017-06-06T07:54:38.949Z,265
2017-06-06T07:55:19.489Z,270
2017-06-06T07:56:00.016Z,270
2017-06-06T07:56:40.560Z,265
2017-06-06T07:57:21.107Z,270
2017-06-06T07:58:01.659Z,275
2017-06-06T07:58:42.205Z,280
2017-06-06T07:59:22.745Z,285
2017-06-06T08:00:03.290Z,265
2017-06-06T08:00:43.830Z,280
2017-06-06T08:01:24.377Z,255
2017-06-06T08:02:04.905Z,245
2017-06-06T08:02:45.444Z,235
2017-06-06T08:03:25.983Z,230
2017-06-06T08:04:06.511Z,220
2017-06-06T08:04:47.072Z,190
2017-06-06T08:05:27.602Z,185
2017-06-06T08:06:08.145Z,195
2017-06-06T08:06:48.683Z,180
2017-06-06T08:07:29.270Z,200
2017-06-06T08:08:09.809Z,210
2017-06-06T08:08:50.355Z,230
2017-06-06T08:09:30.889Z,265
2017-06-06T08:10:11.437Z,285
2017-06-06T08:10:51.989Z,305
2017-06-06T08:11:32.531Z,325
2017-06-06T08:12:13.075Z,345
2017-06-06T08:12:53.599Z,330
2017-06-06T08:13:34.140Z,320
2017-06-06T08:14:14.674Z,350
2017-06-06T08:14:55.213Z,370
2017-06-06T08:15:35.764Z,360
2017-06-06T08:16:16.317Z,390
2017-06-06T08:16:56.849Z,425
2017-06-06T08:17:37.394Z,400
2017-06-06T08:18:17.946Z,345
2017-06-06T08:18:58.485Z,295
2017-06-06T08:19:39.023Z,310
2017-06-06T08:20:19.556Z,305
2017-06-06T08:21:00.097Z,275
2017-06-06T08:21:40.638Z,220
2017-06-06T08:22:21.184Z,255
2017-06-06T08:23:01.737Z,255
2017-06-06T08:23:42.272Z,245
2017-06-06T08:24:22.813Z,225
2017-06-06T08:25:03.351Z,220
2017-06-06T08:25:43.907Z,225
2017-06-06T08:26:24.452Z,230
2017-06-06T08:27:05.173Z,230
2017-06-06T08:27:45.722Z,225
2017-06-06T08:28:26.265Z,225
2017-06-06T08:29:06.798Z,225
2017-06-06T08:29:47.344Z,205
2017-06-06T08:30:27.905Z,190
2017-06-06T08:31:08.403Z,185
2017-06-06T08:31:48.929Z,175
2017-06-06T08:32:29.464Z,180
2017-06-06T08:33:09.999Z,185
2017-06-06T08:33:50.535Z,200
2017-06-06T08:34:31.080Z,215
2017-06-06T08:35:11.618Z,255
2017-06-06T08:35:52.149Z,290
2017-06-06T08:36:32.682Z,330
2017-06-06T08:37:13.221Z,375
2017-06-06T08:37:53.777Z,410
2017-06-06T08:38:34.300Z,410
2017-06-06T08:39:14.840Z,395
2017-06-06T08:39:55.380Z,360
2017-06-06T08:40:35.920Z,300
2017-06-06T08:41:16.521Z,280
2017-06-06T08:41:57.012Z,295
2017-06-06T08:42:37.549Z,345
2017-06-06T08:43:18.089Z,390
2017-06-06T08:43:58.623Z,385
2017-06-06T08:44:39.158Z,420
2017-06-06T08:45:19.695Z,450
2017-06-06T08:46:00.239Z,450
2017-06-06T08:46:40.787Z,510
2017-06-06T08:47:21.303Z,535
2017-06-06T08:48:01.830Z,525
2017-06-06T08:48:42.373Z,525
2017-06-06T08:49:22.915Z,550
2017-06-06T08:50:03.438Z,475
2017-06-06T08:50:43.967Z,370
2017-06-06T08:51:24.501Z,320
2017-06-06T08:52:05.026Z,355
2017-06-06T08:52:45.558Z,380
2017-06-06T08:53:27.624Z,405
2017-06-06T08:54:08.175Z,365
2017-06-06T08:54:48.718Z,340
2017-06-06T08:55:29.267Z,360
2017-06-06T08:56:09.804Z,325
2017-06-06T08:56:50.338Z,295
2017-06-06T08:57:30.879Z,310
2017-06-06T08:58:11.419Z,330
2017-06-06T08:58:52.003Z,345
2017-06-06T08:59:32.560Z,355
2017-06-06T09:00:13.106Z,350
2017-06-06T09:00:53.675Z,340
2017-06-06T09:01:34.263Z,370
2017-06-06T09:02:14.795Z,440
2017-06-06T09:02:55.345Z,510
2017-06-06T09:03:35.880Z,545
2017-06-06T09:04:16.457Z,550
2017-06-06T09:04:56.998Z,530
2017-06-06T09:05:37.534Z,500
2017-06-06T09:06:18.082Z,445
2017-06-06T09:06:58.614Z,385
2017-06-06T09:07:39.155Z,340
2017-06-06T09:08:19.678Z,265
2017-06-06T09:09:00.224Z,340
2017-06-06T09:09:40.814Z,370
2017-06-06T09:10:21.346Z,325
2017-06-06T09:11:01.880Z,285
2017-06-06T09:11:42.421Z,265
2017-06-06T09:12:22.982Z,255
2017-06-06T09:13:03.552Z,255
2017-06-06T09:13:44.096Z,270
2017-06-06T09:14:24.633Z,270
2017-06-06T09:15:05.176Z,230
2017-06-06T09:15:45.715Z,240
2017-06-06T09:16:26.256Z,235
2017-06-06T09:17:06.810Z,245
2017-06-06T09:17:47.368Z,235
2017-06-06T09:18:27.977Z,230
2017-06-06T09:19:08.557Z,225
2017-06-06T09:19:49.088Z,240
2017-06-06T09:20:29.609Z,215
2017-06-06T09:21:10.129Z,205
2017-06-06T09:21:50.673Z,205
2017-06-06T09:22:31.218Z,170
2017-06-06T09:23:11.760Z,240
2017-06-06T09:23:52.296Z,310
2017-06-06T09:24:32.826Z,345
2017-06-06T09:25:13.363Z,400
2017-06-06T09:25:53.894Z,425
2017-06-06T09:26:34.433Z,430
2017-06-06T09:27:14.982Z,375
2017-06-06T09:27:55.532Z,340
2017-06-06T09:28:36.079Z,355
2017-06-06T09:29:16.612Z,315
2017-06-06T09:29:57.149Z,335
2017-06-06T09:30:37.683Z,355
2017-06-06T09:31:18.215Z,525
2017-06-06T09:31:58.767Z,455
2017-06-06T09:32:39.329Z,575
2017-06-06T09:33:19.869Z,700
2017-06-06T09:34:00.413Z,745
2017-06-06T09:34:40.954Z,800
2017-06-06T09:35:21.514Z,915
2017-06-06T09:36:02.053Z,1205
2017-06-06T09:36:42.600Z,590
2017-06-06T09:37:23.151Z,480
2017-06-06T09:38:03.704Z,430
2017-06-06T09:38:44.276Z,470
2017-06-06T09:39:24.808Z,330
2017-06-06T09:40:05.349Z,420
2017-06-06T09:40:45.877Z,560
2017-06-06T09:41:26.447Z,560
2017-06-06T09:42:06.962Z,445
2017-06-06T09:42:47.495Z,270
2017-06-06T09:43:28.035Z,255
2017-06-06T09:44:08.574Z,280
2017-06-06T09:44:49.104Z,360
2017-06-06T09:45:29.669Z,365
2017-06-06T09:46:10.218Z,335
2017-06-06T09:46:50.755Z,395
2017-06-06T09:47:31.302Z,385
2017-06-06T09:48:11.845Z,360
2017-06-06T09:48:52.391Z,565
2017-06-06T09:49:32.936Z,585
2017-06-06T09:50:13.453Z,635
2017-06-06T09:50:53.987Z,750
2017-06-06T09:51:34.528Z,810
2017-06-06T09:52:15.068Z,890
2017-06-06T09:52:55.609Z,1215
2017-06-06T09:53:36.156Z,1220
2017-06-06T09:54:16.721Z,1130
2017-06-06T09:54:57.263Z,1065
2017-06-06T09:55:37.847Z,825
2017-06-06T09:56:18.382Z,645
2017-06-06T09:56:58.914Z,825
2017-06-06T09:57:40.845Z,1335
2017-06-06T09:58:38.240Z,1260
2017-06-06T09:59:18.783Z,1155
2017-06-06T09:59:59.297Z,2165
2017-06-06T10:00:39.841Z,960
2017-06-06T10:01:20.370Z,925
2017-06-06T10:02:00.899Z,1120
2017-06-06T10:02:41.442Z,690
2017-06-06T10:03:21.988Z,705
2017-06-06T10:04:02.528Z,800
2017-06-06T10:04:43.095Z,1430
2017-06-06T10:05:23.645Z,1860
2017-06-06T10:06:04.190Z,1065
2017-06-06T10:06:44.724Z,1535
2017-06-06T10:07:27.499Z,1150
2017-06-06T10:08:10.126Z,2345
2017-06-06T10:08:51.965Z,615
2017-06-06T10:09:33.894Z,475
2017-06-06T10:10:16.304Z,460
2017-06-06T10:11:00.317Z,405
2017-06-06T10:13:36.996Z,360
2017-06-06T10:14:18.797Z,380
2017-06-06T10:15:01.744Z,325
2017-06-06T10:15:43.764Z,295
2017-06-06T10:16:26.300Z,285
2017-06-06T10:19:04.696Z,235
2017-06-06T10:19:46.319Z,335
2017-06-06T10:20:29.153Z,400
2017-06-06T10:21:11.869Z,480
2017-06-06T10:21:53.865Z,420
2017-06-06T10:22:35.650Z,445
2017-06-06T10:23:17.486Z,405
2017-06-06T10:24:11.838Z,415
2017-06-06T10:24:54.972Z,515
2017-06-06T10:25:37.323Z,555
2017-06-06T10:26:18.674Z,710
2017-06-06T10:27:01.333Z,690
2017-06-06T10:27:50.123Z,635
2017-06-06T10:28:37.187Z,650
2017-06-06T10:29:19.006Z,1040
2017-06-06T10:30:01.251Z,1675
2017-06-06T10:30:43.408Z,3925
2017-06-06T10:31:25.674Z,3870
2017-06-06T10:32:08.293Z,1680
2017-06-06T10:32:49.273Z,1305
2017-06-06T10:33:29.802Z,985
2017-06-06T10:34:10.344Z,1370
2017-06-06T10:34:50.904Z,975
2017-06-06T10:35:31.439Z,885
2017-06-06T10:36:11.982Z,890
2017-06-06T10:36:52.506Z,690
2017-06-06T10:37:33.026Z,490
2017-06-06T10:38:13.561Z,675
2017-06-06T10:38:54.107Z,775
2017-06-06T10:39:34.655Z,390
2017-06-06T10:40:15.192Z,245
2017-06-06T10:40:55.742Z,280
2017-06-06T10:41:36.275Z,395
2017-06-06T10:42:16.823Z,375
2017-06-06T10:42:57.375Z,205
2017-06-06T10:43:37.925Z,190
2017-06-06T10:44:18.458Z,210
2017-06-06T10:44:58.995Z,230
2017-06-06T10:45:39.541Z,225
2017-06-06T10:46:20.070Z,210
2017-06-06T10:47:00.616Z,220
2017-06-06T10:47:41.164Z,240
2017-06-06T10:48:21.698Z,260
2017-06-06T10:49:02.238Z,285
2017-06-06T10:49:42.780Z,305
2017-06-06T10:50:23.320Z,390
2017-06-06T10:51:03.874Z,990
2017-06-06T10:51:44.413Z,1160
2017-06-06T10:52:24.954Z,1195
2017-06-06T10:53:05.487Z,1385
2017-06-06T10:53:46.026Z,785
2017-06-06T10:54:26.577Z,950
2017-06-06T10:55:07.123Z,1355
2017-06-06T10:55:47.670Z,1840
2017-06-06T10:56:28.210Z,1520
2017-06-06T10:57:08.763Z,595
2017-06-06T10:57:49.310Z,490
2017-06-06T10:58:29.861Z,690
2017-06-06T10:59:10.404Z,4115
2017-06-06T10:59:50.954Z,4255
2017-06-06T11:00:31.503Z,480
2017-06-06T11:01:12.054Z,320
2017-06-06T11:01:52.640Z,230
2017-06-06T11:02:33.181Z,235
2017-06-06T11:03:13.719Z,265
2017-06-06T11:03:54.268Z,310
2017-06-06T11:04:34.813Z,295
2017-06-06T11:05:15.361Z,485
2017-06-06T11:05:55.900Z,595
2017-06-06T11:06:36.441Z,1525
2017-06-06T11:07:16.977Z,1355
2017-06-06T11:07:57.517Z,1000
2017-06-06T11:08:38.059Z,630
2017-06-06T11:09:18.598Z,585
2017-06-06T11:09:59.154Z,770
2017-06-06T11:10:39.676Z,1720
2017-06-06T11:11:20.232Z,1225
2017-06-06T11:12:00.780Z,1120
2017-06-06T11:12:41.310Z,1250
2017-06-06T11:13:21.841Z,1870
2017-06-06T11:14:02.414Z,970
2017-06-06T11:14:43.049Z,1090
2017-06-06T11:15:23.585Z,1005
2017-06-06T11:16:04.122Z,1160
2017-06-06T11:16:44.661Z,1065
2017-06-06T11:17:25.190Z,1220
2017-06-06T11:18:05.734Z,1050
2017-06-06T11:18:46.281Z,1245
2017-06-06T11:19:26.822Z,755
2017-06-06T11:20:07.358Z,520
2017-06-06T11:20:47.889Z,395
2017-06-06T11:21:28.422Z,460
2017-06-06T11:22:08.988Z,395
2017-06-06T11:22:49.511Z,360
2017-06-06T11:23:30.112Z,620
2017-06-06T11:24:10.684Z,540
2017-06-06T11:24:51.226Z,500
2017-06-06T11:25:31.805Z,615
2017-06-06T11:26:12.443Z,955
2017-06-06T11:26:52.998Z,515
2017-06-06T11:27:33.540Z,445
2017-06-06T11:28:14.081Z,465
2017-06-06T11:28:54.643Z,985
2017-06-06T11:29:35.190Z,655
2017-06-06T11:30:15.731Z,815
2017-06-06T11:30:56.274Z,540
2017-06-06T11:31:36.820Z,750
2017-06-06T11:32:17.358Z,940
2017-06-06T11:32:57.913Z,595
2017-06-06T11:33:38.453Z,400
2017-06-06T11:34:18.995Z,380
2017-06-06T11:34:59.533Z,570
2017-06-06T11:35:40.159Z,4895
2017-06-06T11:36:20.705Z,4855
2017-06-06T11:37:01.256Z,5320
2017-06-06T11:37:41.784Z,4665
2017-06-06T11:38:22.311Z,5150
2017-06-06T11:39:02.844Z,4865
2017-06-06T11:39:43.383Z,4110
2017-06-06T11:40:23.924Z,3185
2017-06-06T11:41:04.471Z,2205
2017-06-06T11:41:45.016Z,1445
2017-06-06T11:42:25.558Z,960
2017-06-06T11:43:06.143Z,820
2017-06-06T11:43:46.764Z,860
2017-06-06T11:44:27.325Z,880
2017-06-06T11:45:07.874Z,785
2017-06-06T11:45:48.419Z,800
2017-06-06T11:46:28.953Z,930
2017-06-06T11:47:09.485Z,770
2017-06-06T11:47:50.031Z,780
2017-06-06T11:48:30.570Z,795
2017-06-06T11:49:11.084Z,815
2017-06-06T11:49:51.627Z,865
2017-06-06T11:50:32.176Z,815
2017-06-06T11:51:12.707Z,840
2017-06-06T11:51:53.250Z,790
2017-06-06T11:52:33.792Z,770
2017-06-06T11:53:14.336Z,705
2017-06-06T11:53:54.881Z,715
2017-06-06T11:54:35.409Z,740
2017-06-06T11:55:15.948Z,740
2017-06-06T11:55:56.487Z,795
2017-06-06T11:56:37.029Z,825
2017-06-06T11:57:17.571Z,770
2017-06-06T11:57:58.107Z,730
2017-06-06T11:58:38.637Z,715
2017-06-06T11:59:19.175Z,775
2017-06-06T11:59:59.721Z,810
2017-06-06T12:00:40.267Z,845
2017-06-06T12:01:20.812Z,945
2017-06-06T12:02:01.355Z,970
2017-06-06T12:02:41.895Z,785
2017-06-06T12:03:22.424Z,560
2017-06-06T12:04:02.971Z,445
2017-06-06T12:04:43.511Z,445
2017-06-06T12:05:24.058Z,450
2017-06-06T12:06:04.599Z,435
2017-06-06T12:06:45.154Z,400
2017-06-06T12:07:25.673Z,375
2017-06-06T12:08:06.210Z,425
2017-06-06T12:08:46.787Z,505
2017-06-06T12:09:27.331Z,595
2017-06-06T12:10:07.874Z,730
2017-06-06T12:10:48.414Z,915
2017-06-06T12:11:28.963Z,1155
2017-06-06T12:12:09.501Z,790
2017-06-06T12:12:50.120Z,905
2017-06-06T12:13:30.659Z,1125
2017-06-06T12:14:11.202Z,680